createdAt,value
2023-04-02T00:00:08.187Z,81.31
2023-04-02T00:01:00.902Z,81.31
2023-04-02T00:02:10.638Z,81.31
2023-04-02T00:03:02.268Z,81.31
2023-04-02T00:04:00.680Z,81.31
2023-04-02T00:05:10.613Z,81.43
2023-04-02T00:06:00.691Z,81.43
2023-04-02T00:07:10.608Z,81.43
2023-04-02T00:08:02.304Z,81.43
2023-04-02T00:09:02.125Z,81.43
2023-04-02T00:10:00.717Z,80.81
2023-04-02T00:11:00.977Z,80.81
2023-04-02T00:12:10.613Z,80.81
2023-04-02T00:13:02.608Z,80.81
2023-04-02T00:14:01.640Z,80.81
2023-04-02T00:15:00.789Z,81.00
2023-04-02T00:16:01.517Z,81.00
2023-04-02T00:17:02.060Z,81.00
2023-04-02T00:18:01.511Z,81.00
2023-04-02T00:19:02.926Z,81.00
2023-04-02T00:20:02.002Z,81.59
2023-04-02T00:21:10.625Z,81.59
2023-04-02T00:22:01.736Z,81.59
2023-04-02T00:23:01.534Z,81.59
2023-04-02T00:24:01.908Z,81.59
2023-04-02T00:25:06.529Z,82.72
2023-04-02T00:26:00.841Z,82.72
2023-04-02T00:27:00.708Z,82.72
2023-04-02T00:28:02.148Z,82.72
2023-04-02T00:29:01.444Z,82.72
2023-04-02T00:30:01.002Z,82.91
2023-04-02T00:31:00.755Z,82.91
2023-04-02T00:32:00.955Z,82.91
2023-04-02T00:33:00.807Z,82.91
2023-04-02T00:34:01.792Z,82.91
2023-04-02T00:35:01.146Z,83.85
2023-04-02T00:36:04.791Z,83.85
2023-04-02T00:37:01.069Z,83.85
2023-04-02T00:38:00.885Z,83.85
2023-04-02T00:39:03.252Z,83.85
2023-04-02T00:40:01.236Z,83.70
2023-04-02T00:41:02.783Z,83.70
2023-04-02T00:42:01.578Z,83.70
2023-04-02T00:43:00.696Z,83.70
2023-04-02T00:44:01.473Z,83.70
2023-04-02T00:45:01.098Z,83.63
2023-04-02T00:46:03.041Z,83.63
2023-04-02T00:47:03.117Z,83.63
2023-04-02T00:48:10.664Z,83.63
2023-04-02T00:49:06.389Z,83.63
2023-04-02T00:50:10.614Z,83.20
2023-04-02T00:51:08.496Z,83.20
2023-04-02T00:52:02.087Z,83.20
2023-04-02T00:53:07.554Z,83.20
2023-04-02T00:54:02.877Z,83.20
2023-04-02T00:55:05.577Z,83.26
2023-04-02T00:56:02.209Z,83.26
2023-04-02T00:57:01.010Z,83.26
2023-04-02T00:58:01.134Z,83.26
2023-04-02T00:59:00.833Z,83.26
2023-04-02T01:00:10.613Z,82.72
2023-04-02T01:01:01.402Z,82.72
2023-04-02T01:02:10.646Z,82.72
2023-04-02T01:03:10.673Z,82.72
2023-04-02T01:04:01.409Z,82.72
2023-04-02T01:05:01.829Z,82.73
2023-04-02T01:06:03.781Z,82.73
2023-04-02T01:07:04.258Z,82.73
2023-04-02T01:08:08.088Z,82.73
2023-04-02T01:09:10.636Z,82.73
2023-04-02T01:10:10.608Z,82.74
2023-04-02T01:11:03.969Z,82.74
2023-04-02T01:12:10.607Z,82.74
2023-04-02T01:13:01.760Z,82.74
2023-04-02T01:14:09.467Z,82.74
2023-04-02T01:15:10.619Z,82.60
2023-04-02T01:16:01.768Z,82.60
2023-04-02T01:17:03.981Z,82.60
2023-04-02T01:18:10.618Z,82.60
2023-04-02T01:19:10.605Z,82.60
2023-04-02T01:20:00.678Z,82.72
2023-04-02T01:21:00.692Z,82.72
2023-04-02T01:22:01.688Z,82.72
2023-04-02T01:23:10.624Z,82.72
2023-04-02T01:24:04.915Z,82.72
2023-04-02T01:25:01.924Z,82.36
2023-04-02T01:26:09.155Z,82.36
2023-04-02T01:27:04.069Z,82.36
2023-04-02T01:28:06.866Z,82.36
2023-04-02T01:29:04.887Z,82.36
2023-04-02T01:30:01.424Z,82.37
2023-04-02T01:31:01.885Z,82.37
2023-04-02T01:32:05.847Z,82.37
2023-04-02T01:33:00.914Z,82.37
2023-04-02T01:34:02.156Z,82.37
2023-04-02T01:35:00.828Z,82.54
2023-04-02T01:36:10.649Z,82.54
2023-04-02T01:37:07.430Z,82.54
2023-04-02T01:38:10.621Z,82.54
2023-04-02T01:39:07.969Z,82.54
2023-04-02T01:40:00.679Z,82.37
2023-04-02T01:41:05.506Z,82.37
2023-04-02T01:42:07.445Z,82.37
2023-04-02T01:43:00.675Z,82.37
2023-04-02T01:44:10.059Z,82.37
2023-04-02T01:45:03.223Z,82.04
2023-04-02T01:46:10.613Z,82.04
2023-04-02T01:47:01.831Z,82.04
2023-04-02T01:48:04.327Z,82.04
2023-04-02T01:49:02.976Z,82.04
2023-04-02T01:50:04.021Z,82.08
2023-04-02T01:51:06.157Z,82.08
2023-04-02T01:52:00.787Z,82.08
2023-04-02T01:53:03.221Z,82.08
2023-04-02T01:54:02.744Z,82.08
2023-04-02T01:55:01.175Z,82.29
2023-04-02T01:56:01.310Z,82.29
2023-04-02T01:57:00.786Z,82.29
2023-04-02T01:58:01.068Z,82.29
2023-04-02T01:59:01.766Z,82.29
2023-04-02T02:00:01.307Z,82.30
2023-04-02T02:01:02.907Z,82.30
2023-04-02T02:02:00.674Z,82.30
2023-04-02T02:03:01.348Z,82.30
2023-04-02T02:05:00.940Z,81.84
2023-04-02T02:06:01.053Z,81.84
2023-04-02T02:07:01.733Z,81.84
2023-04-02T02:08:01.239Z,81.84
2023-04-02T02:09:02.112Z,81.84
2023-04-02T02:10:01.224Z,82.46
2023-04-02T02:11:01.324Z,82.46
2023-04-02T02:12:01.518Z,82.46
2023-04-02T02:13:01.073Z,82.46
2023-04-02T02:14:04.426Z,82.46
2023-04-02T02:15:01.276Z,82.99
2023-04-02T02:16:02.944Z,82.99
2023-04-02T02:17:01.684Z,82.99
2023-04-02T02:18:04.179Z,82.99
2023-04-02T02:19:02.017Z,82.99
2023-04-02T02:20:02.402Z,82.85
2023-04-02T02:21:03.769Z,82.85
2023-04-02T02:22:04.003Z,82.85
2023-04-02T02:23:01.193Z,82.85
2023-04-02T02:24:01.529Z,82.85
2023-04-02T02:25:03.548Z,82.76
2023-04-02T02:26:00.701Z,82.76
2023-04-02T02:27:00.670Z,82.76
2023-04-02T02:28:04.871Z,82.76
2023-04-02T02:29:03.506Z,82.76
2023-04-02T02:30:10.134Z,82.57
2023-04-02T02:31:04.302Z,82.57
2023-04-02T02:32:01.742Z,82.57
2023-04-02T02:33:07.065Z,82.57
2023-04-02T02:34:05.231Z,82.57
2023-04-02T02:35:05.150Z,82.28
2023-04-02T02:36:06.201Z,82.28
2023-04-02T02:37:03.799Z,82.28
2023-04-02T02:38:10.622Z,82.28
2023-04-02T02:39:00.685Z,82.28
2023-04-02T02:40:02.662Z,82.81
2023-04-02T02:41:05.525Z,82.81
2023-04-02T02:42:07.096Z,82.81
2023-04-02T02:43:02.874Z,82.81
2023-04-02T02:44:09.858Z,82.81
2023-04-02T02:45:04.065Z,82.97
2023-04-02T02:46:03.854Z,82.97
2023-04-02T02:47:02.624Z,82.97
2023-04-02T02:48:01.466Z,82.97
2023-04-02T02:49:02.375Z,82.97
2023-04-02T02:50:03.097Z,82.96
2023-04-02T02:51:03.669Z,82.96
2023-04-02T02:52:10.601Z,82.96
2023-04-02T02:53:03.236Z,82.96
2023-04-02T02:54:02.715Z,82.96
2023-04-02T02:55:03.945Z,83.52
2023-04-02T02:56:01.177Z,83.52
2023-04-02T02:57:03.171Z,83.52
2023-04-02T02:58:03.957Z,83.52
2023-04-02T02:59:02.292Z,83.52
2023-04-02T03:00:01.203Z,82.72
2023-04-02T03:01:02.197Z,82.72
2023-04-02T03:02:01.361Z,82.72
2023-04-02T03:03:03.054Z,82.72
2023-04-02T03:04:00.996Z,82.72
2023-04-02T03:05:00.949Z,82.61
2023-04-02T03:06:03.882Z,82.61
2023-04-02T03:07:01.584Z,82.61
2023-04-02T03:08:02.338Z,82.61
2023-04-02T03:09:09.946Z,82.61
2023-04-02T03:10:10.641Z,82.16
2023-04-02T03:11:00.687Z,82.16
2023-04-02T03:12:04.078Z,82.16
2023-04-02T03:13:09.577Z,82.16
2023-04-02T03:14:09.675Z,82.16
2023-04-02T03:15:01.702Z,82.14
2023-04-02T03:16:10.749Z,82.14
2023-04-02T03:17:10.598Z,82.14
2023-04-02T03:18:00.945Z,82.14
2023-04-02T03:19:07.214Z,82.14
2023-04-02T03:20:02.710Z,81.76
2023-04-02T03:21:07.271Z,81.76
2023-04-02T03:22:05.691Z,81.76
2023-04-02T03:23:10.848Z,81.76
2023-04-02T03:24:02.656Z,81.76
2023-04-02T03:25:10.591Z,81.47
2023-04-02T03:26:07.130Z,81.47
2023-04-02T03:27:09.050Z,81.47
2023-04-02T03:28:04.980Z,81.47
2023-04-02T03:29:06.144Z,81.47
2023-04-02T03:30:10.613Z,81.10
2023-04-02T03:31:04.553Z,81.10
2023-04-02T03:32:00.690Z,81.10
2023-04-02T03:33:04.173Z,81.10
2023-04-02T03:34:06.709Z,81.10
2023-04-02T03:35:05.721Z,81.10
2023-04-02T03:36:10.643Z,81.10
2023-04-02T03:37:04.629Z,81.10
2023-04-02T03:38:06.751Z,81.10
2023-04-02T03:39:09.024Z,81.10
2023-04-02T03:40:00.686Z,80.81
2023-04-02T03:41:03.839Z,80.81
2023-04-02T03:42:04.647Z,80.81
2023-04-02T03:43:10.619Z,80.81
2023-04-02T03:44:04.395Z,80.81
2023-04-02T03:45:04.558Z,80.11
2023-04-02T03:46:10.637Z,80.11
2023-04-02T03:47:04.309Z,80.11
2023-04-02T03:48:04.312Z,80.11
2023-04-02T03:49:05.134Z,80.11
2023-04-02T03:50:10.601Z,79.90
2023-04-02T03:51:04.776Z,79.90
2023-04-02T03:52:04.687Z,79.90
2023-04-02T03:53:01.401Z,79.90
2023-04-02T03:54:01.023Z,79.90
2023-04-02T03:55:01.544Z,79.41
2023-04-02T03:56:01.111Z,79.41
2023-04-02T03:57:01.026Z,79.41
2023-04-02T03:58:00.682Z,79.41
2023-04-02T03:59:05.213Z,79.41
2023-04-02T04:00:04.022Z,79.42
2023-04-02T04:01:01.697Z,79.42
2023-04-02T04:02:10.668Z,79.42
2023-04-02T04:03:10.701Z,79.42
2023-04-02T04:04:10.730Z,79.42
2023-04-02T04:05:01.699Z,79.35
2023-04-02T04:06:05.349Z,79.35
2023-04-02T04:07:00.917Z,79.35
2023-04-02T04:08:10.605Z,79.35
2023-04-02T04:09:08.085Z,79.35
2023-04-02T04:10:01.589Z,79.07
2023-04-02T04:11:02.511Z,79.07
2023-04-02T04:12:08.065Z,79.07
2023-04-02T04:13:03.146Z,79.07
2023-04-02T04:14:10.609Z,79.07
2023-04-02T04:15:10.607Z,79.10
2023-04-02T04:16:05.284Z,79.10
2023-04-02T04:17:10.609Z,79.10
2023-04-02T04:18:10.597Z,79.10
2023-04-02T04:19:05.578Z,79.10
2023-04-02T04:20:06.793Z,79.20
2023-04-02T04:21:01.883Z,79.20
2023-04-02T04:22:09.987Z,79.20
2023-04-02T04:23:10.654Z,79.20
2023-04-02T04:24:01.600Z,79.20
2023-04-02T04:25:02.427Z,79.10
2023-04-02T04:26:00.673Z,79.10
2023-04-02T04:27:04.921Z,79.10
2023-04-02T04:28:00.727Z,79.10
2023-04-02T04:29:10.761Z,79.10
2023-04-02T04:30:10.594Z,79.04
2023-04-02T04:31:08.218Z,79.04
2023-04-02T04:32:10.674Z,79.04
2023-04-02T04:33:04.104Z,79.04
2023-04-02T04:34:05.516Z,79.04
2023-04-02T04:35:05.380Z,79.30
2023-04-02T04:36:02.093Z,79.30
2023-04-02T04:37:02.975Z,79.30
2023-04-02T04:38:05.913Z,79.30
2023-04-02T04:39:05.551Z,79.30
2023-04-02T04:40:03.945Z,78.74
2023-04-02T04:41:02.995Z,78.74
2023-04-02T04:42:02.465Z,78.74
2023-04-02T04:43:06.497Z,78.74
2023-04-02T04:44:05.912Z,78.74
2023-04-02T04:45:01.732Z,78.54
2023-04-02T04:46:08.364Z,78.54
2023-04-02T04:47:06.193Z,78.54
2023-04-02T04:48:03.484Z,78.54
2023-04-02T04:49:03.945Z,78.54
2023-04-02T04:50:07.738Z,78.26
2023-04-02T04:51:02.618Z,78.26
2023-04-02T04:52:10.631Z,78.26
2023-04-02T04:53:04.872Z,78.26
2023-04-02T04:54:00.741Z,78.26
2023-04-02T04:55:01.067Z,78.14
2023-04-02T04:56:18.229Z,78.14
2023-04-02T04:57:02.123Z,78.14
2023-04-02T04:58:03.453Z,78.14
2023-04-02T04:59:02.850Z,78.14
2023-04-02T05:00:09.190Z,77.86
2023-04-02T05:01:09.530Z,77.86
2023-04-02T05:02:05.091Z,77.86
2023-04-02T05:03:10.604Z,77.86
2023-04-02T05:04:05.024Z,77.86
2023-04-02T05:05:02.554Z,77.80
2023-04-02T05:06:04.731Z,77.80
2023-04-02T05:07:00.687Z,77.80
2023-04-02T05:08:09.314Z,77.80
2023-04-02T05:09:05.220Z,77.80
2023-04-02T05:10:00.690Z,77.73
2023-04-02T05:11:02.600Z,77.73
2023-04-02T05:12:06.869Z,77.73
2023-04-02T05:13:04.373Z,77.73
2023-04-02T05:14:03.415Z,77.73
2023-04-02T05:15:01.685Z,78.08
2023-04-02T05:16:09.319Z,78.08
2023-04-02T05:17:07.743Z,78.08
2023-04-02T05:18:00.721Z,78.08
2023-04-02T05:19:05.769Z,78.08
2023-04-02T05:20:04.172Z,78.58
2023-04-02T05:21:01.696Z,78.58
2023-04-02T05:22:01.726Z,78.58
2023-04-02T05:23:01.691Z,78.58
2023-04-02T05:24:00.681Z,78.58
2023-04-02T05:25:10.600Z,78.81
2023-04-02T05:26:05.517Z,78.81
2023-04-02T05:27:04.428Z,78.81
2023-04-02T05:28:10.611Z,78.81
2023-04-02T05:29:05.523Z,78.81
2023-04-02T05:30:06.099Z,79.35
2023-04-02T05:31:04.378Z,79.35
2023-04-02T05:32:10.640Z,79.35
2023-04-02T05:33:03.701Z,79.35
2023-04-02T05:34:01.140Z,79.35
2023-04-02T05:35:01.150Z,80.07
2023-04-02T05:36:00.723Z,80.07
2023-04-02T05:37:00.770Z,80.07
2023-04-02T05:38:00.971Z,80.07
2023-04-02T05:39:00.785Z,80.07
2023-04-02T05:40:10.217Z,80.20
2023-04-02T05:41:03.371Z,80.20
2023-04-02T05:42:03.398Z,80.20
2023-04-02T05:43:02.460Z,80.20
2023-04-02T05:44:10.607Z,80.20
2023-04-02T05:45:06.501Z,80.13
2023-04-02T05:46:04.680Z,80.13
2023-04-02T05:47:00.833Z,80.13
2023-04-02T05:48:04.452Z,80.13
2023-04-02T05:49:03.075Z,80.13
2023-04-02T05:50:10.601Z,80.63
2023-04-02T05:51:01.665Z,80.63
2023-04-02T05:52:02.595Z,80.63
2023-04-02T05:53:05.525Z,80.63
2023-04-02T05:54:02.731Z,80.63
2023-04-02T05:55:00.678Z,80.20
2023-04-02T05:56:00.681Z,80.20
2023-04-02T05:57:04.015Z,80.20
2023-04-02T05:58:29.503Z,80.20
2023-04-02T05:59:05.110Z,80.20
2023-04-02T06:00:04.428Z,80.31
2023-04-02T06:01:03.622Z,80.31
2023-04-02T06:02:06.326Z,80.31
2023-04-02T06:03:06.262Z,80.31
2023-04-02T06:04:05.297Z,80.31
2023-04-02T06:05:04.254Z,80.08
2023-04-02T06:06:05.502Z,80.08
2023-04-02T06:07:04.483Z,80.08
2023-04-02T06:08:10.602Z,80.08
2023-04-02T06:09:04.842Z,80.08
2023-04-02T06:10:10.606Z,79.69
2023-04-02T06:11:10.615Z,79.69
2023-04-02T06:12:07.102Z,79.69
2023-04-02T06:13:05.158Z,79.69
2023-04-02T06:14:02.148Z,79.69
2023-04-02T06:15:00.830Z,78.90
2023-04-02T06:16:01.081Z,78.90
2023-04-02T06:17:00.765Z,78.90
2023-04-02T06:18:00.793Z,78.90
2023-04-02T06:19:01.557Z,78.90
2023-04-02T06:20:03.242Z,77.98
2023-04-02T06:21:01.499Z,77.98
2023-04-02T06:22:08.597Z,77.98
2023-04-02T06:23:05.652Z,77.98
2023-04-02T06:24:03.311Z,77.98
2023-04-02T06:25:04.175Z,77.09
2023-04-02T06:26:03.568Z,77.09
2023-04-02T06:27:03.304Z,77.09
2023-04-02T06:28:03.164Z,77.09
2023-04-02T06:29:03.964Z,77.09
2023-04-02T06:30:04.452Z,76.41
2023-04-02T06:31:04.833Z,76.41
2023-04-02T06:32:01.047Z,76.41
2023-04-02T06:33:00.773Z,76.41
2023-04-02T06:34:01.968Z,76.41
2023-04-02T06:35:00.725Z,75.63
2023-04-02T06:36:02.802Z,75.63
2023-04-02T06:37:03.772Z,75.63
2023-04-02T06:38:02.976Z,75.63
2023-04-02T06:39:03.694Z,75.63
2023-04-02T06:40:02.373Z,75.19
2023-04-02T06:41:04.253Z,75.19
2023-04-02T06:42:08.114Z,75.19
2023-04-02T06:43:04.903Z,75.19
2023-04-02T06:44:06.123Z,75.19
2023-04-02T06:45:01.047Z,73.98
2023-04-02T06:46:10.630Z,73.98
2023-04-02T06:47:03.761Z,73.98
2023-04-02T06:48:01.722Z,73.98
2023-04-02T06:49:08.535Z,73.98
2023-04-02T06:50:10.611Z,73.15
2023-04-02T06:51:03.967Z,73.15
2023-04-02T06:52:02.589Z,73.15
2023-04-02T06:53:03.429Z,73.15
2023-04-02T06:54:00.696Z,73.15
2023-04-02T06:55:04.224Z,72.85
2023-04-02T06:56:03.985Z,72.85
2023-04-02T06:57:00.842Z,72.85
2023-04-02T06:58:00.726Z,72.85
2023-04-02T06:59:00.763Z,72.85
2023-04-02T07:00:00.717Z,72.92
2023-04-02T07:01:00.728Z,72.92
2023-04-02T07:02:03.202Z,72.92
2023-04-02T07:03:01.859Z,72.92
2023-04-02T07:04:00.714Z,72.92
2023-04-02T07:05:04.087Z,73.87
2023-04-02T07:06:01.535Z,73.87
2023-04-02T07:07:00.700Z,73.87
2023-04-02T07:08:00.710Z,73.87
2023-04-02T07:09:00.715Z,73.87
2023-04-02T07:10:00.701Z,72.75
2023-04-02T07:11:00.744Z,72.75
2023-04-02T07:12:00.706Z,72.75
2023-04-02T07:13:00.754Z,72.75
2023-04-02T07:14:00.693Z,72.75
2023-04-02T07:15:00.706Z,71.60
2023-04-02T07:16:00.767Z,71.60
2023-04-02T07:17:00.690Z,71.60
2023-04-02T07:18:00.771Z,71.60
2023-04-02T07:19:00.732Z,71.60
2023-04-02T07:20:00.689Z,72.10
2023-04-02T07:21:00.750Z,72.10
2023-04-02T07:22:00.785Z,72.10
2023-04-02T07:23:00.722Z,72.10
2023-04-02T07:36:00.823Z,72.17
2023-04-02T07:37:00.732Z,72.17
2023-04-02T07:38:00.700Z,72.17
2023-04-02T07:39:01.010Z,72.17
2023-04-02T07:40:00.853Z,72.17
2023-04-02T07:41:04.672Z,72.17
2023-04-02T07:42:01.027Z,71.31
2023-04-02T07:43:01.112Z,71.31
2023-04-02T07:44:00.750Z,71.31
2023-04-02T07:45:00.724Z,71.31
2023-04-02T07:46:01.025Z,71.31
2023-04-02T07:47:00.817Z,71.48
2023-04-02T07:48:04.742Z,71.48
2023-04-02T07:49:00.716Z,71.48
2023-04-02T07:50:00.760Z,71.48
2023-04-02T07:51:00.908Z,71.48
2023-04-02T07:52:00.778Z,71.30
2023-04-02T07:53:00.749Z,71.30
2023-04-02T07:54:00.690Z,71.30
2023-04-02T07:55:00.794Z,71.30
2023-04-02T07:56:02.152Z,71.30
2023-04-02T07:57:00.707Z,70.97
2023-04-02T07:58:00.727Z,70.97
2023-04-02T07:59:01.015Z,70.97
2023-04-02T08:00:00.713Z,70.97
2023-04-02T08:01:00.701Z,70.97
2023-04-02T08:02:00.701Z,71.06
2023-04-02T08:03:00.752Z,71.06
2023-04-02T08:04:02.010Z,71.06
2023-04-02T08:05:00.702Z,71.06
2023-04-02T08:06:00.706Z,71.06
2023-04-02T08:07:00.723Z,70.46
2023-04-02T08:08:00.705Z,70.46
2023-04-02T08:09:00.721Z,70.46
2023-04-02T08:10:00.903Z,70.46
2023-04-02T08:11:00.721Z,70.46
2023-04-02T08:12:00.703Z,69.46
2023-04-02T08:13:00.702Z,69.46
2023-04-02T08:14:00.698Z,69.46
2023-04-02T08:15:00.971Z,69.46
2023-04-02T08:16:01.059Z,69.46
2023-04-02T08:17:00.779Z,69.57
2023-04-02T08:18:00.701Z,69.57
2023-04-02T08:19:00.689Z,69.57
2023-04-02T08:20:00.744Z,69.57
2023-04-02T08:21:00.767Z,69.57
2023-04-02T08:22:00.761Z,69.56
2023-04-02T08:23:01.039Z,69.56
2023-04-02T08:24:00.705Z,69.56
2023-04-02T08:25:00.762Z,69.56
2023-04-02T08:26:01.101Z,69.56
2023-04-02T08:27:00.829Z,69.81
2023-04-02T08:28:00.692Z,69.81
2023-04-02T08:29:00.882Z,69.81
2023-04-02T08:30:00.718Z,69.81
2023-04-02T08:31:00.959Z,69.81
2023-04-02T08:32:00.893Z,69.70
2023-04-02T08:33:01.038Z,69.70
2023-04-02T08:34:00.757Z,69.70
2023-04-02T08:35:00.828Z,69.70
2023-04-02T08:36:00.741Z,69.70
2023-04-02T08:37:00.696Z,69.28
2023-04-02T08:38:00.722Z,69.28
2023-04-02T08:39:00.713Z,69.28
2023-04-02T08:40:00.716Z,69.28
2023-04-02T08:41:01.759Z,69.28
2023-04-02T08:42:11.346Z,69.23
2023-04-02T08:43:10.619Z,69.23
2023-04-02T08:44:10.623Z,69.23
2023-04-02T08:45:23.712Z,69.23
2023-04-02T08:46:06.350Z,69.23
2023-04-02T08:47:04.044Z,69.05
2023-04-02T08:48:00.882Z,69.05
2023-04-02T08:49:03.484Z,69.05
2023-04-02T08:50:02.406Z,69.05
2023-04-02T08:51:01.638Z,69.05
2023-04-02T08:52:00.735Z,68.97
2023-04-02T08:53:05.508Z,68.97
2023-04-02T08:54:02.382Z,68.97
2023-04-02T08:55:01.401Z,68.97
2023-04-02T08:56:08.207Z,68.97
2023-04-02T08:57:06.654Z,68.39
2023-04-02T08:58:03.747Z,68.39
2023-04-02T08:59:02.299Z,68.39
2023-04-02T09:00:05.306Z,68.39
2023-04-02T09:01:02.058Z,68.39
2023-04-02T09:02:00.720Z,68.64
2023-04-02T09:03:07.255Z,68.64
2023-04-02T09:04:01.656Z,68.64
2023-04-02T09:05:02.591Z,68.64
2023-04-02T09:06:01.947Z,68.64
2023-04-02T09:07:00.728Z,66.60
2023-04-02T09:08:02.058Z,66.60
2023-04-02T09:09:00.716Z,66.60
2023-04-02T09:10:00.844Z,66.60
2023-04-02T09:11:00.771Z,66.60
2023-04-02T09:12:02.767Z,66.73
2023-04-02T09:13:01.767Z,66.73
2023-04-02T09:14:04.721Z,66.73
2023-04-02T09:15:10.608Z,66.73
2023-04-02T09:16:06.499Z,66.73
2023-04-02T09:17:02.594Z,65.99
2023-04-02T09:18:10.648Z,65.99
2023-04-02T09:19:00.690Z,65.99
2023-04-02T09:20:02.845Z,65.99
2023-04-02T09:21:06.601Z,65.99
2023-04-02T09:22:01.684Z,65.66
2023-04-02T09:23:00.711Z,65.66
2023-04-02T09:24:02.291Z,65.66
2023-04-02T09:25:01.664Z,65.66
2023-04-02T09:26:04.689Z,65.66
2023-04-02T09:27:00.722Z,65.35
2023-04-02T09:28:01.983Z,65.35
2023-04-02T09:29:04.038Z,65.35
2023-04-02T09:30:00.699Z,65.35
2023-04-02T09:31:10.634Z,65.35
2023-04-02T09:32:06.879Z,65.30
2023-04-02T09:33:02.562Z,65.30
2023-04-02T09:34:00.695Z,65.30
2023-04-02T09:35:12.271Z,65.30
2023-04-02T09:36:00.773Z,65.30
2023-04-02T09:37:07.073Z,65.49
2023-04-02T09:38:10.620Z,65.49
2023-04-02T09:39:02.966Z,65.49
2023-04-02T09:40:10.616Z,65.49
2023-04-02T09:41:04.973Z,65.49
2023-04-02T09:42:05.989Z,65.41
2023-04-02T09:43:03.275Z,65.41
2023-04-02T09:44:10.608Z,65.41
2023-04-02T09:45:10.617Z,65.41
2023-04-02T09:46:02.375Z,65.41
2023-04-02T09:47:00.785Z,64.66
2023-04-02T09:48:00.763Z,64.66
2023-04-02T09:49:01.240Z,64.66
2023-04-02T09:50:10.602Z,64.66
2023-04-02T09:51:10.389Z,64.66
2023-04-02T09:52:10.630Z,64.11
2023-04-02T09:53:10.615Z,64.11
2023-04-02T09:54:01.710Z,64.11
2023-04-02T09:55:10.597Z,64.11
2023-04-02T09:56:09.523Z,64.11
2023-04-02T09:57:02.565Z,63.58
2023-04-02T09:58:10.603Z,63.58
2023-04-02T09:59:00.677Z,63.58
2023-04-02T10:00:25.267Z,63.58
2023-04-02T10:01:00.800Z,63.58
2023-04-02T10:02:00.861Z,62.33
2023-04-02T10:03:00.794Z,62.33
2023-04-02T10:04:01.949Z,62.33
2023-04-02T10:05:02.673Z,62.33
2023-04-02T10:06:09.749Z,62.33
2023-04-02T10:07:01.009Z,61.50
2023-04-02T10:08:10.619Z,61.50
2023-04-02T10:09:10.600Z,61.50
2023-04-02T10:10:01.994Z,61.50
2023-04-02T10:11:01.924Z,61.50
2023-04-02T10:12:03.211Z,60.79
2023-04-02T10:13:01.734Z,60.79
2023-04-02T10:14:02.699Z,60.79
2023-04-02T10:15:02.276Z,60.79
2023-04-02T10:16:03.255Z,60.79
2023-04-02T10:17:06.295Z,60.73
2023-04-02T10:18:05.686Z,60.73
2023-04-02T10:19:09.288Z,60.73
2023-04-02T10:20:04.751Z,60.73
2023-04-02T10:21:02.258Z,60.73
2023-04-02T10:22:04.095Z,60.28
2023-04-02T10:23:00.704Z,60.28
2023-04-02T10:24:00.906Z,60.28
2023-04-02T10:25:00.759Z,60.28
2023-04-02T10:26:07.232Z,60.28
2023-04-02T10:27:00.695Z,60.92
2023-04-02T10:28:10.617Z,60.92
2023-04-02T10:29:01.698Z,60.92
2023-04-02T10:30:06.562Z,60.92
2023-04-02T10:31:06.771Z,60.92
2023-04-02T10:32:00.693Z,60.28
2023-04-02T10:33:04.125Z,60.28
2023-04-02T10:34:03.399Z,60.28
2023-04-02T10:35:02.437Z,60.28
2023-04-02T10:36:08.038Z,60.28
2023-04-02T10:37:08.227Z,59.32
2023-04-02T10:38:08.985Z,59.32
2023-04-02T10:39:05.887Z,59.32
2023-04-02T10:40:07.841Z,59.32
2023-04-02T10:41:10.609Z,59.32
2023-04-02T10:42:10.055Z,58.60
2023-04-02T10:43:10.607Z,58.60
2023-04-02T10:44:17.163Z,58.60
2023-04-02T10:45:10.612Z,58.60
2023-04-02T10:46:00.758Z,58.60
2023-04-02T10:47:00.693Z,59.03
2023-04-02T10:48:01.797Z,59.03
2023-04-02T10:49:08.136Z,59.03
2023-04-02T10:50:03.975Z,59.03
2023-04-02T10:51:05.667Z,59.03
2023-04-02T10:52:10.608Z,59.81
2023-04-02T10:53:08.488Z,59.81
2023-04-02T10:54:09.335Z,59.81
2023-04-02T10:55:03.111Z,59.81
2023-04-02T10:56:02.447Z,59.81
2023-04-02T10:57:07.817Z,58.07
2023-04-02T10:58:06.306Z,58.07
2023-04-02T10:59:04.844Z,58.07
2023-04-02T11:00:04.626Z,58.07
2023-04-02T11:01:04.711Z,58.07
2023-04-02T11:02:03.099Z,58.37
2023-04-02T11:03:03.698Z,58.37
2023-04-02T11:04:00.711Z,58.37
2023-04-02T11:05:04.564Z,58.37
2023-04-02T11:06:04.708Z,58.37
2023-04-02T11:07:13.798Z,56.50
2023-04-02T11:08:04.538Z,56.50
2023-04-02T11:09:02.647Z,56.50
2023-04-02T11:10:00.871Z,56.50
2023-04-02T11:11:10.640Z,56.50
2023-04-02T11:12:01.984Z,55.74
2023-04-02T11:13:04.758Z,55.74
2023-04-02T11:14:08.253Z,55.74
2023-04-02T11:15:01.236Z,55.74
2023-04-02T11:16:00.863Z,55.74
2023-04-02T11:17:01.078Z,56.37
2023-04-02T11:18:00.808Z,56.37
2023-04-02T11:19:10.618Z,56.37
2023-04-02T11:20:10.702Z,56.37
2023-04-02T11:21:10.611Z,56.37
2023-04-02T11:22:04.322Z,56.90
2023-04-02T11:23:08.497Z,56.90
2023-04-02T11:24:01.601Z,56.90
2023-04-02T11:25:01.720Z,56.90
2023-04-02T11:26:10.620Z,56.90
2023-04-02T11:27:10.648Z,55.63
2023-04-02T11:28:10.615Z,55.63
2023-04-02T11:29:05.506Z,55.63
2023-04-02T11:30:10.688Z,55.63
2023-04-02T11:31:01.012Z,55.63
2023-04-02T11:32:10.620Z,56.08
2023-04-02T11:33:10.650Z,56.08
2023-04-02T11:34:00.722Z,56.08
2023-04-02T11:35:06.656Z,56.08
2023-04-02T11:36:00.739Z,56.08
2023-04-02T11:37:01.584Z,56.24
2023-04-02T11:38:02.345Z,56.24
2023-04-02T11:39:11.031Z,56.24
2023-04-02T11:40:02.261Z,56.24
2023-04-02T11:41:00.747Z,56.24
2023-04-02T11:42:01.996Z,57.69
2023-04-02T11:43:10.635Z,57.69
2023-04-02T11:44:01.022Z,57.69
2023-04-02T11:45:10.610Z,57.69
2023-04-02T11:46:01.673Z,57.69
2023-04-02T11:47:10.623Z,57.65
2023-04-02T11:48:00.868Z,57.65
2023-04-02T11:49:10.614Z,57.65
2023-04-02T11:50:01.574Z,57.65
2023-04-02T11:51:10.127Z,57.65
2023-04-02T11:52:11.481Z,56.20
2023-04-02T11:53:03.470Z,56.20
2023-04-02T11:54:00.826Z,56.20
2023-04-02T11:55:04.851Z,56.20
2023-04-02T11:56:10.611Z,56.20
2023-04-02T11:57:08.261Z,55.56
2023-04-02T11:58:06.437Z,55.56
2023-04-02T11:59:02.491Z,55.56
2023-04-02T12:00:00.698Z,55.56
2023-04-02T12:01:10.645Z,55.56
2023-04-02T12:02:08.383Z,54.99
2023-04-02T12:03:10.672Z,54.99
2023-04-02T12:04:06.853Z,54.99
2023-04-02T12:05:08.779Z,54.99
2023-04-02T12:06:10.628Z,54.99
2023-04-02T12:07:10.668Z,54.11
2023-04-02T12:08:10.743Z,54.11
2023-04-02T12:09:10.621Z,54.11
2023-04-02T12:10:04.052Z,54.11
2023-04-02T12:11:01.354Z,54.11
2023-04-02T12:12:12.281Z,52.97
2023-04-02T12:13:00.761Z,52.97
2023-04-02T12:14:01.729Z,52.97
2023-04-02T12:15:00.911Z,52.97
2023-04-02T12:16:01.316Z,52.97
2023-04-02T12:17:01.964Z,52.15
2023-04-02T12:18:05.501Z,52.15
2023-04-02T12:19:01.287Z,52.15
2023-04-02T12:20:05.103Z,52.15
2023-04-02T12:21:01.930Z,52.15
2023-04-02T12:22:00.868Z,53.25
2023-04-02T12:23:01.222Z,53.25
2023-04-02T12:24:02.897Z,53.25
2023-04-02T12:25:03.367Z,53.25
2023-04-02T12:26:02.294Z,53.25
2023-04-02T12:27:10.294Z,52.31
2023-04-02T12:28:02.746Z,52.31
2023-04-02T12:29:10.616Z,52.31
2023-04-02T12:30:10.636Z,52.31
2023-04-02T12:31:01.760Z,52.31
2023-04-02T12:32:00.758Z,52.50
2023-04-02T12:33:10.649Z,52.50
2023-04-02T12:34:00.745Z,52.50
2023-04-02T12:35:01.895Z,52.50
2023-04-02T12:36:01.393Z,52.50
2023-04-02T12:37:02.188Z,52.88
2023-04-02T12:38:00.773Z,52.88
2023-04-02T12:39:00.732Z,52.88
2023-04-02T12:40:02.647Z,52.88
2023-04-02T12:41:02.038Z,52.88
2023-04-02T12:42:00.736Z,51.68
2023-04-02T12:43:00.880Z,51.68
2023-04-02T12:44:10.620Z,51.68
2023-04-02T12:45:01.340Z,51.68
2023-04-02T12:46:01.957Z,51.68
2023-04-02T12:47:00.733Z,50.84
2023-04-02T12:48:02.095Z,50.84
2023-04-02T12:49:07.315Z,50.84
2023-04-02T12:50:01.147Z,50.84
2023-04-02T12:51:01.996Z,50.84
2023-04-02T12:52:01.530Z,51.39
2023-04-02T12:53:00.807Z,51.39
2023-04-02T12:54:00.894Z,51.39
2023-04-02T12:55:01.523Z,51.39
2023-04-02T12:56:01.016Z,51.39
2023-04-02T12:57:10.620Z,51.66
2023-04-02T12:58:00.698Z,51.66
2023-04-02T12:59:00.711Z,51.66
2023-04-02T13:00:00.686Z,51.66
2023-04-02T13:01:09.951Z,51.66
2023-04-02T13:02:02.407Z,51.15
2023-04-02T13:03:10.661Z,51.15
2023-04-02T13:04:02.650Z,51.15
2023-04-02T13:05:00.894Z,51.15